Time;durP1;ratioP1;P1;durP2;ratioP2;P2;SDS_P1;SDS_P2;PMS_P1;PMS_P2;Temp;Humidity;BMP_temperature;BMP_pressure;BME280_temperature;BME280_humidity;BME280_pressure;Samples;Min_cycle;Max_cycle;Signal;HPM_P1;HPM_P2
2022/08/16 00:00:27;;;;;;;0.30;0.30;;;21.00;99.90;;;;;;5027183;28;20128;-81
2022/08/16 00:03:43;;;;;;;0.30;0.30;;;20.90;99.90;;;;;;5030665;28;20055;-80
2022/08/16 00:06:09;;;;;;;0.30;0.30;;;20.90;99.90;;;;;;5029431;28;20159;-80
2022/08/16 00:08:35;;;;;;;0.30;0.30;;;21.00;99.90;;;;;;5031424;28;20077;-80
2022/08/16 00:11:01;;;;;;;0.40;0.40;;;21.00;99.90;;;;;;5028585;28;20147;-80
2022/08/16 00:13:28;;;;;;;0.30;0.30;;;21.00;99.90;;;;;;5029049;28;20052;-80
2022/08/16 00:15:53;;;;;;;0.30;0.30;;;21.10;99.90;;;;;;5031882;28;20103;-80
2022/08/16 00:18:20;;;;;;;0.40;0.40;;;21.10;99.90;;;;;;5030503;28;20735;-80
2022/08/16 00:20:47;;;;;;;0.30;0.30;;;21.10;99.90;;;;;;5034960;28;20052;-80
2022/08/16 00:23:13;;;;;;;0.30;0.30;;;21.10;99.90;;;;;;5033751;28;20087;-80
2022/08/16 00:25:39;;;;;;;0.32;0.32;;;21.00;99.90;;;;;;5034887;28;20448;-80
2022/08/16 00:28:06;;;;;;;0.30;0.30;;;21.00;99.90;;;;;;5035276;28;20059;-80
2022/08/16 00:30:33;;;;;;;0.30;0.30;;;20.90;99.90;;;;;;5032175;28;20079;-80
2022/08/16 00:33:00;;;;;;;0.30;0.30;;;20.90;99.90;;;;;;5052293;28;20475;-81
2022/08/16 00:35:34;;;;;;;0.30;0.30;;;20.90;99.90;;;;;;5029116;28;20617;-80
2022/08/16 00:38:04;;;;;;;0.30;0.30;;;20.90;99.90;;;;;;5027650;28;20044;-81
2022/08/16 00:40:48;;;;;;;0.30;0.30;;;20.90;99.90;;;;;;5048685;28;20045;-81
2022/08/16 00:43:21;;;;;;;0.30;0.30;;;20.80;99.90;;;;;;5033492;28;20048;-80
2022/08/16 00:45:56;;;;;;;0.30;0.30;;;20.70;99.90;;;;;;5031200;28;20059;-80
2022/08/16 00:48:22;;;;;;;0.30;0.30;;;20.70;99.90;;;;;;5050326;28;20076;-80
2022/08/16 00:50:48;;;;;;;0.30;0.30;;;20.70;99.90;;;;;;5050834;28;20131;-80
2022/08/16 00:53:16;;;;;;;0.30;0.30;;;20.70;99.90;;;;;;5050485;28;20048;-80
2022/08/16 00:55:52;;;;;;;0.40;0.40;;;20.80;99.90;;;;;;5031069;28;20053;-81
2022/08/16 00:58:19;;;;;;;0.30;0.30;;;20.70;99.90;;;;;;5032122;28;20057;-80
2022/08/16 01:00:46;;;;;;;0.30;0.30;;;20.60;99.90;;;;;;5026350;28;20055;-81
2022/08/16 01:03:14;;;;;;;0.30;0.30;;;20.50;99.90;;;;;;5027821;28;20057;-81
2022/08/16 01:05:41;;;;;;;0.30;0.30;;;20.50;99.90;;;;;;5029830;28;20043;-80
2022/08/16 01:08:10;;;;;;;0.30;0.30;;;20.50;99.90;;;;;;5027187;28;20040;-81
2022/08/16 01:10:36;;;;;;;0.30;0.30;;;20.40;99.90;;;;;;5029280;28;20434;-81
2022/08/16 01:13:11;;;;;;;0.30;0.30;;;20.50;99.90;;;;;;5024405;28;20057;-80
2022/08/16 01:15:40;;;;;;;0.30;0.30;;;20.50;99.90;;;;;;5027636;28;20487;-80
2022/08/16 01:18:08;;;;;;;0.30;0.30;;;20.50;99.90;;;;;;5028659;28;20576;-81
2022/08/16 01:20:41;;;;;;;0.30;0.30;;;20.60;99.90;;;;;;5023128;28;20044;-80
2022/08/16 01:23:16;;;;;;;0.30;0.30;;;20.60;99.90;;;;;;5026795;28;20863;-80
2022/08/16 01:25:46;;;;;;;0.30;0.30;;;20.60;99.90;;;;;;5025513;28;20049;-80
2022/08/16 01:28:15;;;;;;;0.30;0.30;;;20.50;99.90;;;;;;5010171;28;20079;-80
2022/08/16 01:30:46;;;;;;;0.38;0.38;;;20.50;99.90;;;;;;5011799;28;20053;-80
2022/08/16 01:33:12;;;;;;;0.30;0.30;;;20.60;99.90;;;;;;5028104;28;20044;-80
2022/08/16 01:36:00;;;;;;;0.30;0.30;;;20.50;99.90;;;;;;5025523;28;20037;-80
2022/08/16 01:38:33;;;;;;;0.30;0.30;;;20.50;99.90;;;;;;5026769;28;20053;-80
2022/08/16 01:41:04;;;;;;;0.50;0.50;;;20.40;99.90;;;;;;5028566;28;20057;-80
2022/08/16 01:43:31;;;;;;;0.30;0.30;;;20.50;99.90;;;;;;5005969;28;20119;-80
2022/08/16 01:45:59;;;;;;;0.30;0.30;;;20.60;99.90;;;;;;5012559;28;20061;-80
2022/08/16 01:48:28;;;;;;;0.30;0.30;;;20.60;99.90;;;;;;5029141;28;20053;-81
2022/08/16 01:50:54;;;;;;;0.30;0.30;;;20.50;99.90;;;;;;5011952;23;20124;-80
2022/08/16 01:53:28;;;;;;;0.32;0.32;;;20.60;99.90;;;;;;5023000;28;20041;-80
2022/08/16 01:55:53;;;;;;;0.30;0.30;;;20.50;99.90;;;;;;5018906;28;20739;-80
2022/08/16 01:58:21;;;;;;;0.30;0.30;;;20.50;99.90;;;;;;5023281;28;20140;-80
2022/08/16 02:00:47;;;;;;;0.30;0.30;;;20.50;99.90;;;;;;5019498;28;20153;-80
2022/08/16 02:03:13;;;;;;;0.30;0.30;;;20.50;99.90;;;;;;4999411;28;20087;-80
2022/08/16 02:05:40;;;;;;;0.30;0.30;;;20.40;99.90;;;;;;4999655;28;20064;-79
2022/08/16 02:08:07;;;;;;;0.30;0.30;;;20.40;99.90;;;;;;4997294;28;20045;-80
2022/08/16 02:10:35;;;;;;;0.30;0.30;;;20.40;99.90;;;;;;5005222;28;20088;-80
2022/08/16 02:13:03;;;;;;;0.52;0.40;;;20.30;99.90;;;;;;5000689;28;20053;-80
2022/08/16 02:15:30;;;;;;;0.30;0.30;;;20.40;99.90;;;;;;5013092;28;20052;-80
2022/08/16 02:17:59;;;;;;;0.30;0.30;;;20.30;99.90;;;;;;5004210;28;20909;-80
2022/08/16 02:20:27;;;;;;;0.30;0.30;;;20.20;99.90;;;;;;5004050;28;20491;-80
2022/08/16 02:22:53;;;;;;;0.30;0.30;;;20.10;99.90;;;;;;5006250;28;20057;-80
2022/08/16 02:25:19;;;;;;;0.40;0.40;;;19.90;99.90;;;;;;5025012;28;20122;-80
2022/08/16 02:27:45;;;;;;;0.30;0.30;;;19.80;99.90;;;;;;5004882;28;20046;-80
2022/08/16 02:30:18;;;;;;;0.30;0.30;;;19.70;99.90;;;;;;5020914;28;20447;-80
2022/08/16 02:32:44;;;;;;;0.30;0.30;;;19.60;99.90;;;;;;5007155;28;20045;-80
2022/08/16 02:35:10;;;;;;;0.30;0.30;;;19.70;99.90;;;;;;4997206;28;20072;-81
2022/08/16 02:37:37;;;;;;;0.30;0.30;;;19.80;99.90;;;;;;5017146;28;20041;-80
2022/08/16 02:40:04;;;;;;;0.35;0.35;;;20.00;99.90;;;;;;5023621;28;20060;-80
2022/08/16 02:42:30;;;;;;;0.30;0.30;;;20.10;99.90;;;;;;5017039;28;20076;-80
2022/08/16 02:44:56;;;;;;;0.40;0.40;;;20.10;99.90;;;;;;5013801;28;20041;-80
2022/08/16 02:47:22;;;;;;;0.30;0.30;;;20.10;99.90;;;;;;5003908;28;20060;-80
2022/08/16 02:49:48;;;;;;;0.30;0.30;;;20.00;99.90;;;;;;4973934;28;20055;-80
2022/08/16 02:52:16;;;;;;;0.40;0.40;;;20.00;99.90;;;;;;4994986;28;20046;-80
2022/08/16 02:54:42;;;;;;;0.30;0.30;;;19.80;99.90;;;;;;4997253;28;20077;-80
2022/08/16 02:57:08;;;;;;;0.30;0.30;;;19.80;99.90;;;;;;5009458;28;20057;-80
2022/08/16 02:59:33;;;;;;;0.30;0.30;;;19.80;99.90;;;;;;5008103;28;20054;-80
2022/08/16 03:01:59;;;;;;;0.40;0.40;;;19.80;99.90;;;;;;5009284;28;20443;-80
2022/08/16 03:04:25;;;;;;;0.40;0.40;;;19.80;99.90;;;;;;5008791;28;20060;-80
2022/08/16 03:06:52;;;;;;;0.40;0.40;;;19.90;99.90;;;;;;4992271;28;20092;-80
2022/08/16 03:09:17;;;;;;;0.30;0.30;;;19.90;99.90;;;;;;5011768;28;20136;-80
2022/08/16 03:11:43;;;;;;;0.30;0.30;;;20.00;99.90;;;;;;5010684;28;20656;-80
2022/08/16 03:14:10;;;;;;;0.55;0.35;;;20.00;99.90;;;;;;5006907;28;20115;-80
2022/08/16 03:16:37;;;;;;;0.30;0.30;;;20.00;99.90;;;;;;5006810;28;20073;-80
2022/08/16 03:19:07;;;;;;;0.30;0.30;;;20.00;99.90;;;;;;4993825;28;20085;-80
2022/08/16 03:21:33;;;;;;;0.40;0.40;;;20.00;99.90;;;;;;4993118;28;20092;-80
2022/08/16 03:23:59;;;;;;;0.30;0.30;;;20.00;99.90;;;;;;5015440;28;20065;-80
2022/08/16 03:26:25;;;;;;;0.32;0.32;;;19.90;99.90;;;;;;4994518;28;20053;-80
2022/08/16 03:28:50;;;;;;;0.30;0.30;;;19.90;99.90;;;;;;5007579;28;20053;-80
2022/08/16 03:31:16;;;;;;;0.30;0.30;;;19.80;99.90;;;;;;5010393;28;20045;-81
2022/08/16 03:33:42;;;;;;;0.30;0.30;;;19.60;99.90;;;;;;4992421;28;20248;-81
2022/08/16 03:36:08;;;;;;;0.30;0.30;;;19.50;99.90;;;;;;4993296;28;20487;-81
2022/08/16 03:38:34;;;;;;;0.30;0.30;;;19.40;99.90;;;;;;5006494;28;20049;-80
2022/08/16 03:41:01;;;;;;;0.30;0.30;;;19.40;99.90;;;;;;5007127;28;20048;-80
2022/08/16 03:43:28;;;;;;;0.35;0.35;;;19.30;99.90;;;;;;5005239;28;20054;-81
2022/08/16 03:45:58;;;;;;;0.30;0.30;;;19.10;99.90;;;;;;5008867;28;20133;-81
2022/08/16 03:48:28;;;;;;;0.30;0.30;;;18.70;99.90;;;;;;4992320;28;20077;-81
2022/08/16 03:50:54;;;;;;;0.30;0.30;;;18.60;99.90;;;;;;5015123;28;20057;-81
2022/08/16 03:53:20;;;;;;;0.30;0.30;;;18.50;99.90;;;;;;5018454;28;22145;-81
2022/08/16 03:55:45;;;;;;;0.30;0.30;;;18.50;99.90;;;;;;5017979;28;20041;-82
2022/08/16 03:58:11;;;;;;;0.30;0.30;;;18.50;99.90;;;;;;4974731;28;20046;-80
2022/08/16 04:00:38;;;;;;;0.40;0.40;;;18.50;99.90;;;;;;5019465;28;20049;-81
2022/08/16 04:03:07;;;;;;;0.30;0.30;;;18.50;99.90;;;;;;5003341;28;20081;-81
2022/08/16 04:05:39;;;;;;;0.30;0.30;;;18.40;99.90;;;;;;5000371;28;20049;-81
2022/08/16 04:08:05;;;;;;;0.30;0.30;;;18.80;99.90;;;;;;5016141;28;20050;-81
2022/08/16 04:10:31;;;;;;;0.30;0.30;;;18.80;99.90;;;;;;5012404;28;20057;-80
2022/08/16 04:12:57;;;;;;;0.40;0.40;;;18.80;99.90;;;;;;5018935;28;20045;-81
2022/08/16 04:15:24;;;;;;;0.40;0.40;;;18.90;99.90;;;;;;5017321;28;20131;-80
2022/08/16 04:17:51;;;;;;;0.30;0.30;;;18.90;99.90;;;;;;5012932;28;20053;-80
2022/08/16 04:20:17;;;;;;;0.40;0.40;;;18.90;99.90;;;;;;4995297;28;20112;-80
2022/08/16 04:22:43;;;;;;;0.30;0.30;;;18.90;99.90;;;;;;5003755;28;20049;-80
2022/08/16 04:25:11;;;;;;;0.30;0.30;;;18.90;99.90;;;;;;5014541;28;20144;-80
2022/08/16 04:27:37;;;;;;;0.30;0.30;;;18.80;99.90;;;;;;4974958;28;20045;-81
2022/08/16 04:30:08;;;;;;;0.30;0.30;;;18.80;99.90;;;;;;5015283;28;20056;-80
2022/08/16 04:32:34;;;;;;;0.32;0.32;;;18.80;99.90;;;;;;5018065;28;20123;-80
2022/08/16 04:35:00;;;;;;;0.30;0.30;;;18.80;99.90;;;;;;5017946;28;20143;-80
2022/08/16 04:37:26;;;;;;;0.40;0.40;;;18.60;99.90;;;;;;5006942;28;20056;-81
2022/08/16 04:39:51;;;;;;;0.30;0.30;;;18.40;99.90;;;;;;5017851;28;20167;-80
2022/08/16 04:42:18;;;;;;;0.40;0.40;;;18.10;99.90;;;;;;5017688;28;20054;-81
2022/08/16 04:44:45;;;;;;;0.30;0.30;;;18.00;99.90;;;;;;5033377;28;20057;-80
2022/08/16 04:47:11;;;;;;;0.30;0.30;;;17.90;99.90;;;;;;5035562;28;20061;-80
2022/08/16 04:49:37;;;;;;;0.30;0.30;;;17.80;99.90;;;;;;5035819;28;20044;-82
2022/08/16 04:52:04;;;;;;;0.30;0.30;;;17.80;99.90;;;;;;5042295;28;20418;-81
2022/08/16 04:54:29;;;;;;;0.40;0.40;;;17.70;99.90;;;;;;5062999;28;20052;-81
2022/08/16 04:56:55;;;;;;;0.35;0.35;;;17.70;99.90;;;;;;5029764;28;20051;-80
2022/08/16 04:59:21;;;;;;;0.30;0.30;;;17.80;99.90;;;;;;5062284;28;20051;-80
2022/08/16 05:01:47;;;;;;;0.40;0.40;;;17.90;99.90;;;;;;5046569;28;20040;-80
2022/08/16 05:04:13;;;;;;;0.38;0.38;;;18.10;99.90;;;;;;5062427;28;20053;-80
2022/08/16 05:06:39;;;;;;;0.40;0.40;;;18.30;99.90;;;;;;5029659;28;20051;-80
2022/08/16 05:09:05;;;;;;;0.30;0.30;;;18.60;99.90;;;;;;5062829;28;20059;-80
2022/08/16 05:11:31;;;;;;;0.32;0.32;;;19.70;99.90;;;;;;5062990;28;20049;-80
2022/08/16 05:14:00;;;;;;;0.40;0.40;;;20.60;99.90;;;;;;5062612;28;20127;-80
2022/08/16 05:16:29;;;;;;;0.30;0.30;;;21.30;99.90;;;;;;5061853;28;20124;-80
2022/08/16 05:18:57;;;;;;;0.40;0.40;;;22.10;99.90;;;;;;5063316;28;20458;-80
2022/08/16 05:21:24;;;;;;;0.30;0.30;;;22.60;99.90;;;;;;5062604;28;20048;-80
2022/08/16 05:23:51;;;;;;;0.30;0.30;;;23.10;99.90;;;;;;5045987;28;20095;-80
2022/08/16 05:26:17;;;;;;;0.43;0.43;;;23.40;99.90;;;;;;5062344;28;20379;-80
2022/08/16 05:28:43;;;;;;;0.30;0.30;;;23.50;99.90;;;;;;5046222;28;20048;-81
2022/08/16 05:31:09;;;;;;;0.30;0.30;;;24.00;99.90;;;;;;5046139;28;20056;-80
2022/08/16 05:33:34;;;;;;;0.30;0.30;;;24.30;99.90;;;;;;5044175;28;20041;-80
2022/08/16 05:36:00;;;;;;;0.40;0.40;;;24.40;99.90;;;;;;5062335;28;20049;-80
2022/08/16 05:38:26;;;;;;;0.40;0.40;;;24.30;99.90;;;;;;5045287;28;20044;-81
2022/08/16 05:41:00;;;;;;;0.40;0.40;;;24.80;99.90;;;;;;5062512;28;20036;-81
2022/08/16 05:43:27;;;;;;;0.35;0.35;;;25.00;99.90;;;;;;5059592;28;20064;-81
2022/08/16 05:45:54;;;;;;;0.30;0.30;;;25.50;99.90;;;;;;5014894;28;20141;-81
2022/08/16 05:48:20;;;;;;;0.40;0.40;;;25.80;99.90;;;;;;4998497;28;20169;-82
2022/08/16 05:50:46;;;;;;;0.30;0.30;;;25.70;99.90;;;;;;5022934;28;20054;-82
2022/08/16 05:53:12;;;;;;;0.30;0.30;;;25.70;99.90;;;;;;5022478;28;20064;-82
2022/08/16 05:55:38;;;;;;;0.30;0.30;;;24.20;99.90;;;;;;5021001;28;20041;-81
2022/08/16 05:58:04;;;;;;;0.30;0.30;;;23.70;99.90;;;;;;4977616;28;20058;-80
2022/08/16 06:00:30;;;;;;;0.30;0.30;;;23.60;99.90;;;;;;5020399;28;20053;-81
2022/08/16 06:02:56;;;;;;;0.30;0.30;;;23.50;99.90;;;;;;5020655;28;20056;-80
2022/08/16 06:05:23;;;;;;;0.43;0.40;;;23.40;99.90;;;;;;5002804;28;20491;-81
2022/08/16 06:07:50;;;;;;;0.30;0.30;;;23.20;99.90;;;;;;5021232;28;20136;-82
2022/08/16 06:10:18;;;;;;;0.30;0.30;;;23.30;99.90;;;;;;5005255;28;20407;-80
2022/08/16 06:13:01;;;;;;;0.30;0.30;;;23.40;99.90;;;;;;5006250;28;20534;-80
2022/08/16 06:15:27;;;;;;;0.30;0.30;;;23.50;99.90;;;;;;4996516;28;20042;-79
2022/08/16 06:17:52;;;;;;;0.30;0.30;;;23.60;99.90;;;;;;5015791;28;20050;-82
2022/08/16 06:20:21;;;;;;;0.30;0.30;;;23.90;99.90;;;;;;5018728;28;20053;-80
2022/08/16 06:22:48;;;;;;;0.30;0.30;;;23.90;99.90;;;;;;4996331;28;20049;-79
2022/08/16 06:25:14;;;;;;;0.30;0.30;;;24.10;99.90;;;;;;5005298;28;20050;-78
2022/08/16 06:27:40;;;;;;;0.43;0.35;;;24.20;99.90;;;;;;5006785;28;20040;-80
2022/08/16 06:30:08;;;;;;;0.30;0.30;;;23.90;99.90;;;;;;4983860;28;20505;-80
2022/08/16 06:32:34;;;;;;;0.30;0.30;;;23.80;99.90;;;;;;5016934;28;20049;-79
2022/08/16 06:34:59;;;;;;;0.30;0.30;;;23.40;99.90;;;;;;5016096;28;20809;-79
2022/08/16 06:37:25;;;;;;;0.40;0.40;;;23.30;99.90;;;;;;5000856;28;20160;-82
2022/08/16 06:39:51;;;;;;;0.30;0.30;;;23.10;99.90;;;;;;5024078;28;20049;-83
2022/08/16 06:42:17;;;;;;;0.30;0.30;;;23.10;99.90;;;;;;5022035;28;20041;-81
2022/08/16 06:44:43;;;;;;;0.30;0.30;;;23.40;99.90;;;;;;5018638;28;20050;-80
2022/08/16 06:47:09;;;;;;;0.30;0.30;;;23.60;99.90;;;;;;5017028;28;20053;-78
2022/08/16 06:49:35;;;;;;;0.30;0.30;;;23.80;99.90;;;;;;5011629;28;20063;-79
2022/08/16 06:52:01;;;;;;;0.30;0.30;;;24.00;99.90;;;;;;5015415;28;20037;-79
2022/08/16 06:54:26;;;;;;;0.30;0.30;;;24.00;99.90;;;;;;5015014;28;20061;-78
2022/08/16 06:56:52;;;;;;;0.30;0.30;;;24.10;99.90;;;;;;5034189;28;20048;-77
2022/08/16 06:59:18;;;;;;;0.30;0.30;;;24.40;99.90;;;;;;5030644;28;20094;-80
2022/08/16 07:01:43;;;;;;;0.30;0.30;;;24.50;99.90;;;;;;5014139;28;20151;-80
2022/08/16 07:04:09;;;;;;;0.28;0.28;;;24.70;99.90;;;;;;5034647;28;21282;-78
2022/08/16 07:06:35;;;;;;;0.28;0.28;;;24.80;99.90;;;;;;5010512;28;20053;-79
2022/08/16 07:09:01;;;;;;;0.30;0.30;;;24.90;99.90;;;;;;5012704;28;20048;-81
2022/08/16 07:11:27;;;;;;;0.30;0.30;;;24.90;99.90;;;;;;5029635;28;20052;-80
2022/08/16 07:13:53;;;;;;;0.30;0.30;;;24.90;99.90;;;;;;5013795;28;20059;-78
2022/08/16 07:16:19;;;;;;;0.30;0.30;;;24.60;99.90;;;;;;5030527;28;20507;-79
2022/08/16 07:18:46;;;;;;;0.30;0.30;;;24.40;99.90;;;;;;4997929;28;20134;-81
2022/08/16 07:21:14;;;;;;;0.30;0.30;;;24.40;99.90;;;;;;4997382;28;20109;-81
2022/08/16 07:23:46;;;;;;;0.30;0.30;;;24.30;99.90;;;;;;5031607;28;20110;-78
2022/08/16 07:26:18;;;;;;;0.30;0.30;;;24.20;99.90;;;;;;5030281;28;20545;-81
2022/08/16 07:28:44;;;;;;;0.20;0.20;;;24.00;99.90;;;;;;5016228;28;20071;-80
2022/08/16 07:31:10;;;;;;;0.30;0.30;;;24.10;99.90;;;;;;5014421;28;20053;-81
2022/08/16 07:33:37;;;;;;;0.40;0.40;;;24.30;99.90;;;;;;4996518;28;20469;-80
2022/08/16 07:36:05;;;;;;;0.20;0.20;;;24.60;99.90;;;;;;5034388;28;20067;-80
2022/08/16 07:38:30;;;;;;;0.30;0.30;;;24.90;99.90;;;;;;5031078;28;20048;-80
2022/08/16 07:40:56;;;;;;;0.30;0.30;;;25.10;99.90;;;;;;4983093;28;20037;-82
2022/08/16 07:43:24;;;;;;;0.30;0.30;;;25.30;99.90;;;;;;5035837;28;21083;-81
2022/08/16 07:45:50;;;;;;;0.30;0.30;;;25.50;99.90;;;;;;5013089;28;20118;-81
2022/08/16 07:48:16;;;;;;;0.30;0.30;;;25.70;99.90;;;;;;5030179;28;20045;-80
2022/08/16 07:50:42;;;;;;;0.30;0.30;;;26.00;99.90;;;;;;5011672;28;20057;-79
2022/08/16 07:53:08;;;;;;;0.20;0.20;;;26.30;99.90;;;;;;5013443;28;20044;-80
2022/08/16 07:55:35;;;;;;;0.30;0.30;;;26.50;99.90;;;;;;5026902;28;20049;-82
2022/08/16 07:58:01;;;;;;;0.38;0.38;;;26.40;99.90;;;;;;5031998;28;20057;-82
2022/08/16 08:00:27;;;;;;;0.30;0.30;;;26.60;99.90;;;;;;5013165;28;20059;-81
2022/08/16 08:02:54;;;;;;;0.30;0.30;;;26.90;99.90;;;;;;4995011;28;20675;-81
2022/08/16 08:05:22;;;;;;;0.30;0.30;;;26.90;99.90;;;;;;5007977;28;20773;-81
2022/08/16 08:07:48;;;;;;;0.30;0.30;;;27.10;99.90;;;;;;5009174;28;20118;-81
2022/08/16 08:10:14;;;;;;;0.20;0.20;;;26.80;99.90;;;;;;5023787;28;20708;-81
2022/08/16 08:12:42;;;;;;;0.30;0.30;;;27.00;99.90;;;;;;5033094;28;20053;-81
2022/08/16 08:15:10;;;;;;;0.30;0.30;;;26.90;99.90;;;;;;5028249;28;20044;-79
2022/08/16 08:17:38;;;;;;;0.30;0.30;;;27.10;99.90;;;;;;5009822;28;20072;-81
2022/08/16 08:20:07;;;;;;;0.30;0.30;;;27.20;99.90;;;;;;5028639;28;20048;-80
2022/08/16 08:22:33;;;;;;;0.20;0.20;;;27.10;99.90;;;;;;5026928;28;20049;-81
2022/08/16 08:24:59;;;;;;;0.20;0.20;;;27.30;99.90;;;;;;5013488;28;20041;-80
2022/08/16 08:27:25;;;;;;;0.30;0.30;;;27.40;99.90;;;;;;5012675;28;20378;-80
2022/08/16 08:29:51;;;;;;;0.20;0.20;;;27.60;99.90;;;;;;5035481;28;20106;-81
2022/08/16 08:32:20;;;;;;;0.20;0.20;;;27.60;99.90;;;;;;5035685;28;20388;-79
2022/08/16 08:34:46;;;;;;;0.30;0.30;;;27.60;99.90;;;;;;5039696;28;20118;-80
2022/08/16 08:37:12;;;;;;;0.30;0.30;;;27.60;99.90;;;;;;5017534;28;20048;-81
2022/08/16 08:39:39;;;;;;;0.25;0.25;;;27.60;99.90;;;;;;5030681;28;20163;-84
2022/08/16 08:42:05;;;;;;;0.30;0.30;;;27.70;99.90;;;;;;5017101;28;20052;-80
2022/08/16 08:44:32;;;;;;;0.28;0.28;;;27.70;99.90;;;;;;5029883;28;20041;-82
2022/08/16 08:47:04;;;;;;;0.30;0.30;;;27.70;99.90;;;;;;5019537;28;20048;-80
2022/08/16 08:49:30;;;;;;;0.30;0.30;;;27.70;99.90;;;;;;5015648;28;20057;-81
2022/08/16 08:51:57;;;;;;;0.25;0.25;;;27.90;99.90;;;;;;5000788;28;20497;-78
2022/08/16 08:54:25;;;;;;;0.20;0.20;;;28.00;99.90;;;;;;4996122;28;20051;-80
2022/08/16 08:56:51;;;;;;;0.30;0.30;;;28.10;99.90;;;;;;5032492;28;20152;-79
2022/08/16 08:59:17;;;;;;;0.30;0.30;;;28.10;99.90;;;;;;5031288;28;20049;-79
2022/08/16 09:01:43;;;;;;;0.30;0.30;;;28.10;99.90;;;;;;4992510;28;20049;-83
2022/08/16 09:04:10;;;;;;;0.20;0.20;;;28.10;99.90;;;;;;5009403;28;20620;-78
2022/08/16 09:06:37;;;;;;;0.30;0.30;;;28.20;99.90;;;;;;5013572;28;20055;-80
2022/08/16 09:09:04;;;;;;;0.30;0.30;;;28.30;99.90;;;;;;5031258;28;20069;-80
2022/08/16 09:11:30;;;;;;;0.20;0.20;;;28.30;99.90;;;;;;5033870;28;20060;-79
2022/08/16 09:13:56;;;;;;;0.30;0.30;;;28.40;99.90;;;;;;5012800;28;20308;-81
2022/08/16 09:16:22;;;;;;;0.40;0.40;;;28.50;99.90;;;;;;5015785;28;20464;-80
2022/08/16 09:18:47;;;;;;;0.20;0.20;;;28.50;99.90;;;;;;5026868;28;20469;-81
2022/08/16 09:21:14;;;;;;;0.20;0.20;;;28.30;99.90;;;;;;5015742;28;20048;-78
2022/08/16 09:23:40;;;;;;;0.22;0.22;;;28.70;99.90;;;;;;5031915;28;20163;-81
2022/08/16 09:26:08;;;;;;;0.20;0.20;;;28.80;99.90;;;;;;5034334;28;20041;-80
2022/08/16 09:28:34;;;;;;;0.20;0.20;;;29.10;99.90;;;;;;5030967;28;20090;-81
2022/08/16 09:31:00;;;;;;;0.20;0.20;;;29.10;99.90;;;;;;5032952;28;20065;-80
2022/08/16 09:33:27;;;;;;;0.30;0.30;;;29.10;99.90;;;;;;5017379;28;20049;-79
2022/08/16 09:35:53;;;;;;;0.30;0.30;;;29.50;99.90;;;;;;5020060;28;20044;-81
2022/08/16 09:38:18;;;;;;;0.20;0.20;;;29.20;99.90;;;;;;4997654;28;20047;-78
2022/08/16 09:40:45;;;;;;;0.20;0.20;;;29.50;99.90;;;;;;5015451;28;20053;-80
2022/08/16 09:43:15;;;;;;;0.20;0.20;;;29.50;99.90;;;;;;5014641;28;20049;-82
2022/08/16 09:45:41;;;;;;;0.20;0.20;;;29.70;99.90;;;;;;5029326;28;20052;-80
2022/08/16 09:48:08;;;;;;;0.28;0.28;;;29.60;99.90;;;;;;5030127;28;20056;-80
2022/08/16 09:50:35;;;;;;;0.20;0.20;;;29.90;99.90;;;;;;5018485;28;20695;-81
2022/08/16 09:53:04;;;;;;;0.20;0.20;;;30.10;99.90;;;;;;5031835;28;20072;-78
2022/08/16 09:55:29;;;;;;;0.30;0.30;;;30.00;99.90;;;;;;5030651;28;20049;-80
2022/08/16 09:57:56;;;;;;;0.30;0.30;;;30.10;99.90;;;;;;5015657;28;20053;-80
2022/08/16 10:00:25;;;;;;;0.20;0.20;;;30.10;99.90;;;;;;5013947;28;20421;-79
2022/08/16 10:02:52;;;;;;;0.20;0.20;;;30.40;99.90;;;;;;5031160;28;20114;-79
2022/08/16 10:05:19;;;;;;;0.20;0.20;;;30.40;99.90;;;;;;5031907;28;20132;-80
2022/08/16 10:07:46;;;;;;;0.20;0.20;;;30.40;99.90;;;;;;5030676;28;20057;-79
2022/08/16 10:10:15;;;;;;;0.20;0.20;;;30.40;99.80;;;;;;4996456;28;20049;-80
2022/08/16 10:15:27;;;;;;;0.30;0.30;;;30.70;97.40;;;;;;5031480;28;20494;-78
2022/08/16 10:17:54;;;;;;;0.20;0.20;;;30.50;96.80;;;;;;5015430;28;20505;-80
2022/08/16 10:20:24;;;;;;;0.28;0.28;;;30.50;96.10;;;;;;5026286;28;20056;-81
2022/08/16 10:22:51;;;;;;;0.20;0.20;;;30.50;96.20;;;;;;5012778;28;20075;-81
2022/08/16 10:25:17;;;;;;;0.28;0.28;;;30.70;95.40;;;;;;5027457;28;20049;-84
2022/08/16 10:27:45;;;;;;;0.28;0.28;;;30.70;96.30;;;;;;4991968;28;20048;-82
2022/08/16 10:30:11;;;;;;;0.20;0.20;;;30.70;95.50;;;;;;5013070;28;20526;-81
2022/08/16 10:32:37;;;;;;;0.20;0.20;;;30.60;95.20;;;;;;5027856;28;20045;-81
2022/08/16 10:35:03;;;;;;;0.25;0.25;;;30.60;95.20;;;;;;5033946;28;20056;-81
2022/08/16 10:37:29;;;;;;;0.25;0.25;;;30.80;94.80;;;;;;5011492;28;20056;-81
2022/08/16 10:39:55;;;;;;;0.30;0.30;;;30.50;94.80;;;;;;5035959;28;20044;-80
2022/08/16 10:42:21;;;;;;;0.20;0.20;;;30.90;94.80;;;;;;5011544;28;20049;-83
2022/08/16 10:44:48;;;;;;;0.30;0.30;;;31.00;95.10;;;;;;5014320;28;20052;-82
2022/08/16 10:47:14;;;;;;;0.20;0.20;;;31.10;94.90;;;;;;5030879;28;20530;-79
2022/08/16 10:49:39;;;;;;;0.20;0.20;;;31.20;94.70;;;;;;4993495;28;20057;-80
2022/08/16 10:52:06;;;;;;;0.20;0.20;;;31.40;94.30;;;;;;5033476;28;20383;-80
2022/08/16 10:54:31;;;;;;;0.30;0.30;;;31.40;92.90;;;;;;5010905;28;20045;-80
2022/08/16 10:56:59;;;;;;;0.20;0.20;;;31.40;93.70;;;;;;5007306;28;20533;-81
2022/08/16 10:59:25;;;;;;;0.20;0.20;;;31.40;93.50;;;;;;5010938;28;20091;-80
2022/08/16 11:01:51;;;;;;;0.20;0.20;;;31.40;94.10;;;;;;5034760;28;20055;-80
2022/08/16 11:04:17;;;;;;;0.30;0.30;;;31.70;93.70;;;;;;4988778;28;20053;-81
2022/08/16 11:06:43;;;;;;;0.30;0.30;;;31.70;94.10;;;;;;5004223;28;20052;-81
2022/08/16 11:09:09;;;;;;;0.32;0.32;;;31.50;94.60;;;;;;5012817;28;20413;-79
2022/08/16 11:11:35;;;;;;;0.35;0.30;;;31.70;93.80;;;;;;5028136;28;20072;-81
2022/08/16 11:14:00;;;;;;;0.20;0.20;;;31.90;93.40;;;;;;5028730;28;20106;-80
2022/08/16 11:16:27;;;;;;;0.30;0.30;;;31.80;92.60;;;;;;5032320;28;20052;-81
2022/08/16 11:18:55;;;;;;;0.22;0.22;;;32.00;93.60;;;;;;5026906;28;20136;-80
2022/08/16 11:21:24;;;;;;;0.20;0.20;;;32.10;93.00;;;;;;5012613;28;20053;-80
2022/08/16 11:23:52;;;;;;;0.20;0.20;;;32.30;93.60;;;;;;5027934;28;20110;-83
2022/08/16 11:26:18;;;;;;;0.20;0.20;;;32.20;92.70;;;;;;5014622;28;20061;-79
2022/08/16 11:28:44;;;;;;;0.20;0.20;;;32.10;92.60;;;;;;5032049;28;20044;-81
2022/08/16 11:31:09;;;;;;;0.28;0.28;;;32.30;92.70;;;;;;4998782;28;20048;-80
2022/08/16 11:33:35;;;;;;;0.20;0.20;;;32.10;92.30;;;;;;5013264;28;20068;-81
2022/08/16 11:36:02;;;;;;;0.20;0.20;;;32.50;93.20;;;;;;4996880;28;20052;-82
2022/08/16 11:38:28;;;;;;;0.20;0.20;;;32.60;92.60;;;;;;5009604;28;20514;-81
2022/08/16 11:40:56;;;;;;;0.20;0.20;;;32.50;91.90;;;;;;5012442;28;20041;-81
2022/08/16 11:43:26;;;;;;;0.20;0.20;;;32.50;92.10;;;;;;5013085;28;20716;-83
2022/08/16 11:45:52;;;;;;;0.20;0.20;;;32.60;92.60;;;;;;5027554;28;20930;-83
2022/08/16 11:48:18;;;;;;;0.20;0.20;;;32.90;92.30;;;;;;5012742;28;20045;-86
2022/08/16 11:50:45;;;;;;;0.20;0.20;;;32.50;91.50;;;;;;5014294;28;20064;-81
2022/08/16 11:53:11;;;;;;;1.17;0.30;;;32.80;91.60;;;;;;5027448;28;20094;-79
2022/08/16 11:55:38;;;;;;;0.20;0.20;;;32.90;90.20;;;;;;5030608;28;20375;-84
2022/08/16 11:58:06;;;;;;;0.20;0.20;;;32.80;88.20;;;;;;5010181;28;20051;-83
2022/08/16 12:00:33;;;;;;;0.20;0.20;;;32.40;86.80;;;;;;5013028;28;20067;-81
2022/08/16 12:02:59;;;;;;;0.20;0.20;;;32.60;87.70;;;;;;5030987;28;20152;-82
2022/08/16 12:05:26;;;;;;;0.20;0.20;;;32.60;87.00;;;;;;5016203;28;20048;-82
2022/08/16 12:07:54;;;;;;;0.28;0.28;;;32.60;87.10;;;;;;5013778;28;20049;-82
2022/08/16 12:10:22;;;;;;;0.20;0.20;;;32.60;85.80;;;;;;5034474;28;20072;-82
2022/08/16 12:12:48;;;;;;;0.20;0.20;;;32.80;86.20;;;;;;5015912;28;20124;-81
2022/08/16 12:15:14;;;;;;;0.20;0.20;;;32.70;84.50;;;;;;5035787;28;20137;-80
2022/08/16 12:17:42;;;;;;;0.30;0.30;;;32.90;84.00;;;;;;5031595;28;20060;-83
2022/08/16 12:20:18;;;;;;;0.30;0.30;;;33.00;86.30;;;;;;5036961;28;20276;-81
2022/08/16 12:22:44;;;;;;;0.20;0.20;;;33.10;84.90;;;;;;5039146;28;20041;-79
2022/08/16 12:25:14;;;;;;;0.28;0.28;;;32.90;83.30;;;;;;5031975;28;20053;-85
2022/08/16 12:27:41;;;;;;;0.20;0.20;;;33.10;83.90;;;;;;5012824;28;20056;-80
2022/08/16 12:30:08;;;;;;;0.20;0.20;;;33.10;83.50;;;;;;5014080;28;20128;-81
2022/08/16 12:32:34;;;;;;;0.20;0.20;;;33.00;83.10;;;;;;5033837;28;20383;-83
2022/08/16 12:35:00;;;;;;;0.22;0.22;;;33.10;83.00;;;;;;5014623;28;20106;-81
2022/08/16 12:37:27;;;;;;;0.20;0.20;;;32.80;81.10;;;;;;4999220;28;20356;-83
2022/08/16 12:39:55;;;;;;;0.20;0.20;;;33.10;82.20;;;;;;4982939;28;20118;-83
2022/08/16 12:42:22;;;;;;;0.20;0.20;;;32.50;82.50;;;;;;5032698;28;20037;-84
2022/08/16 12:44:48;;;;;;;0.20;0.20;;;32.50;82.50;;;;;;5015539;28;20060;-81
2022/08/16 12:50:00;;;;;;;0.20;0.20;;;32.40;81.90;;;;;;5034808;28;21249;-83
2022/08/16 12:52:26;;;;;;;0.20;0.20;;;32.20;83.00;;;;;;5019546;28;20525;-80